AirNav  
 
 314 users online  

X10 Belle Glade State Municipal Airport
Belle Glade, Florida, USA

GOING TO BELLE GLADE?


FAA INFORMATION EFFECTIVE 04 JANUARY 2018

Location

FAA Identifier: X10
Lat/Long: 26-41-53.9000N / 080-39-38.9000W
26-41.898333N / 080-39.648333W
26.6983056 / -80.6608056
(estimated)
Elevation: 14 ft. / 4 m (estimated)
Variation: 03W (1985)
From city: 1 mile NE of BELLE GLADE, FL
Time zone: UTC -5 (UTC -4 during Daylight Saving Time)
Zip code: 33430

Airport Operations

Airport use: Open to the public
Activation date: 04/1940
Control tower: no
ARTCC: MIAMI CENTER
FSS: MIAMI FLIGHT SERVICE STATION
NOTAMs facility: MIA (NOTAM-D service available)
Attendance: UNATNDD
Wind indicator: yes, WIND SOCK TORN OFF
Segmented circle: no

Airport Communications

CTAF: 122.9

Nearby radio navigation aids

VOR radial/distance  VOR name  Freq  Var
PHKr162/5.3PAHOKEE VOR/DME115.4000E
PBIr275/30.8PALM BEACH VORTAC115.7003W
LBVr100/39.9LA BELLE VORTAC110.4001E

 
NDB name  Hdg/Dist  Freq  Var  ID
UNITED239/21.540505WUTX ..- - -..-

Airport Services

Airframe service: NONE
Powerplant service: NONE
Bottled oxygen: NONE
Bulk oxygen: NONE

Runway Information

Runway 9/27

Dimensions: 3750 x 50 ft. / 1143 x 15 m
Surface: asphalt, in poor condition
RY 09/27 HAS A 50 FT ASPHALT CENTER WITH A 7.5 FT TURF EDGE ON EACH SIDE. RAVELLING; SMALL ROCKS & GRVL ON RY.
Runway edge markings: RY 9/27 MKD WITH REFLECTIVE MARKERS ENTIRE LENGTH; MANY REFLECTORS MISSING; MARKINGS FADED; NO TWY HOLD LINE MARKINGS ON RY 9.
RUNWAY 9  RUNWAY 27
Latitude: 26-41.898167N26-41.897333N
Longitude: 080-39.992167W080-39.303000W
Elevation: 14.0 ft.11.0 ft.
Gradient: 0.1%0.1%
Traffic pattern: leftleft
Runway heading: 093 magnetic, 090 true273 magnetic, 270 true
Displaced threshold: 225 ft.75 ft.
Declared distances: TORA:3750 TODA:3750TORA:3750 TODA:3750
Markings: basic, in poor conditionbasic, in poor condition
Obstructions: 33 ft. tree, 580 ft. from runway, 32 ft. left of centerline, 11:1 slope to clear
RY 09 APCH RATIO 25:1 TO DSPLCD THR.
56 ft. pole, 1374 ft. from runway, 47 ft. left of centerline, 20:1 slope to clear
RY 27 APCH RATIO 26:1 TO DSPLCD THLD.

Airport Ownership and Management from official FAA records

Ownership: Publicly-owned
Owner: CITY OF BELLE GLADE
110 DR. MARTIN LUTHER KING JR. BLVD
BELLE GLADE, FL 33430-3900
Phone 561-996-0100
CONTACT PERSON: LOMAX HARRELLE 561-992-1601
Manager: MARCOS MONTES DE OCA
110 DR. MARTIN LUTHER KING JR. BLVD
BELLE GLADE, FL 33430
Phone 561-996-0100

Airport Operational Statistics

Aircraft based on the field: 11
Single engine airplanes: 10
Helicopters: 1
    
Aircraft operations: avg 34/week *
67% local general aviation
33% transient general aviation
* for 12-month period ending 27 May 2016

Additional Remarks

RY 09 NIGHT LNDGS NOT ADVISED DUE TO UNLGTD POWER LINES IN APCH.
BERM FULL LENGTH OF RY 113 FT N OF CNTRLN, RY 09/27.

Instrument Procedures

There are no published instrument procedures at X10.

Some nearby airports with instrument procedures:

KPHK - Palm Beach County Glades Airport (5 nm N)
2IS - Airglades Airport (21 nm W)
06FA - William P Gwinn Airport (22 nm NE)
F45 - North Palm Beach County General Aviation Airport (25 nm E)
KPBI - Palm Beach International Airport (30 nm E)
 
Loc | Ops | Rwys | IFR | FBO | Links
Com | Nav | Svcs | Stats | Notes

Reliance Aviation
AirBoss

 
Area around X10 (Belle Glade State Municipal Airport)
 
Road maps at: MapQuest Bing Google
 
Aerial photo
WARNING: Photo may not be current or correct
Aerial photo of X10 (Belle Glade State Municipal Airport)
Do you have a better or more recent aerial photo of Belle Glade State Municipal Airport that you would like to share? If so, please send us your photo.

 
Sectional chart

 
Airport distance calculator
Flying to Belle Glade State Municipal Airport? Find the distance to fly.

From to X10

Sunrise and sunset
Times for 19-Jan-2018
 Local
(UTC-5)
 Zulu
(UTC)
Morning civil twilight06:4811:48
Sunrise07:1312:13
Sunset17:5422:54
Evening civil twilight18:1823:18

Current date and time
Zulu (UTC)  19-Jan-2018 08:29:12
Local (UTC-5)  19-Jan-2018 03:29:12
 
METAR
KPBI 
30nm E 
190753Z 33007KT 10SM SCT250 09/06 A3025 RMK AO2 SLP244 T00890056 $
KLNA 
32nm E 
190815Z AUTO 33007KT 09/07 A3025 RMK AO2 T00850071 PWINO
KOBE 
35nm N 
190815Z AUTO 36006KT 10SM CLR 03/M01 A3029 RMK AO2
KBCT 
36nm SE 
190351Z 01006KT 10SM CLR 10/7 A3030 RMK LAST
KSUA 
38nm NE 
190815Z AUTO 33007KT 10SM CLR 08/07 A3027 RMK AO2
KFXE 
39nm SE 
190753Z 32004KT 10SM CLR 09/08 A3024 RMK AO2 SLP244 T00890078 $
KPMP 
40nm SE 
190753Z AUTO 33008KT 10SM CLR 10/08 A3024 RMK AO2 SLP241 T01000083
KIMM 
43nm W 
190815Z AUTO 35004KT 10SM FEW022 SCT032 04/02 A3029 RMK AO2
KFLL 
47nm SE 
190753Z 35008KT 10SM BKN250 09/08 A3024 RMK AO2 SLP238 T00890083
KHWO 
48nm SE 
190753Z AUTO A3026 RMK AO2 SLP248 PWINO PNO $
TAF
KPBI 
30nm E 
190537Z 1906/2006 33008KT P6SM SCT250 FM191400 05010KT P6SM SCT040 SCT250 FM191800 08010KT P6SM SCT040 SCT250 FM200100 06005KT P6SM BKN250
KSUA 
38nm NE 
190544Z 1906/2006 30005KT P6SM SCT250 FM191600 06007KT P6SM BKN030 FM200100 VRB03KT P6SM SCT035 BKN150
NOTAMs
Click for the latest NOTAMs
NOTAMs are issued by the DoD/FAA and will open in a separate window not controlled by AirNav.

 

 
 

Would you like to see your business listed on this page?

 If your business provides an interesting product or service to pilots, flight crews, aircraft, or users of the Belle Glade State Municipal Airport, you should consider listing it here.  To start the listing process, click on the button below
 
Add a business
 

Other Pages about Belle Glade State Municipal Airport

Update a link
 
Copyright © AirNav, LLC. All rights reserved. Privacy Policy  Contact